Check out our new PWSWeather beta!
PWSweather.com
Personal Weather Stations
Station Observations
GIRWX1
Presovsky Kraj, GiraltovceSK

Presovsky KrajGiraltovceSK

Lat: 49.118, Lon: 21.52

Elevation: 630

Station Type: wh1080

http://www.meteogiraltovce.wz.cz/

High Low Average
Temperature 57.0°F13.9°C 45.9°F7.7°C 55.3°F12.9°C
Dew Point 51.7°F10.9°C 41.4°F5.2°C 49.2°F9.6°C
Winds 16.8 mph 27.0 kmh Calm Calm 6.0 mph S9.7 kmh S
Wind Gusts 23.5 mph37.8 kmh 0.7 mph1.1 kmh 9.0 mph14.5 kmh
Humidity 89% 74% 80%
Pressure 29.55 in1000.7 mb 29.34 in993.6 mb -
Precipitation 0.32 in8.1 mm - -
Hour Temp Dew Point Humidity Winds Wind Gusts Pressure Precip Precip Rate Daily Precip Total
12:00 AM 56.7°F13.7°C 48.5°F9.2°C 74% 6.8 mph S10.9 kmh S 10.7 mph17.2 kmh 29.48 in998.3 mb 0.00 in0.0 mm 0.00 in0.0 mm 0.00 in0.0 mm
12:05 AM 56.7°F13.7°C 48.5°F9.2°C 74% 5.3 mph SW8.5 kmh SW 12.1 mph19.5 kmh 29.48 in998.3 mb 0.00 in0.0 mm 0.00 in0.0 mm 0.00 in0.0 mm
12:10 AM 56.7°F13.7°C 48.5°F9.2°C 74% 4.9 mph SSW7.9 kmh SSW 9.8 mph15.8 kmh 29.48 in998.3 mb 0.00 in0.0 mm 0.00 in0.0 mm 0.00 in0.0 mm
12:15 AM 56.6°F13.7°C 48.4°F9.1°C 74% 4.4 mph SSE7.1 kmh SSE 7.6 mph12.2 kmh 29.47 in998.0 mb 0.00 in0.0 mm 0.00 in0.0 mm 0.00 in0.0 mm
12:20 AM 56.5°F13.6°C 48.3°F9.1°C 74% 4.0 mph S6.4 kmh S 6.9 mph11.1 kmh 29.48 in998.3 mb 0.00 in0.0 mm 0.00 in0.0 mm 0.00 in0.0 mm
12:25 AM 56.5°F13.6°C 48.3°F9.1°C 74% 6.2 mph SSE10.0 kmh SSE 10.7 mph17.2 kmh 29.47 in998.0 mb 0.00 in0.0 mm 0.00 in0.0 mm 0.00 in0.0 mm
12:30 AM 56.5°F13.6°C 48.3°F9.1°C 74% 3.4 mph SSW5.5 kmh SSW 5.4 mph8.7 kmh 29.47 in998.0 mb 0.00 in0.0 mm 0.00 in0.0 mm 0.00 in0.0 mm
12:35 AM 56.5°F13.6°C 48.3°F9.1°C 74% 2.1 mph WSW3.4 kmh WSW 3.8 mph6.1 kmh 29.47 in998.0 mb 0.00 in0.0 mm 0.00 in0.0 mm 0.00 in0.0 mm
12:40 AM 56.5°F13.6°C 48.3°F9.1°C 74% 5.3 mph SW8.5 kmh SW 6.9 mph11.1 kmh 29.47 in998.0 mb 0.00 in0.0 mm 0.00 in0.0 mm 0.00 in0.0 mm
12:45 AM 56.3°F13.5°C 48.1°F8.9°C 74% 2.0 mph NW3.2 kmh NW 3.8 mph6.1 kmh 29.46 in997.6 mb 0.00 in0.0 mm 0.00 in0.0 mm 0.00 in0.0 mm
12:50 AM 56.2°F13.4°C 48.1°F8.9°C 74% 2.3 mph NW3.7 kmh NW 3.8 mph6.1 kmh 29.46 in997.6 mb 0.00 in0.0 mm 0.00 in0.0 mm 0.00 in0.0 mm
12:55 AM 56.1°F13.4°C 47.9°F8.8°C 74% 0.9 mph WSW1.4 kmh WSW 3.1 mph5.0 kmh 29.46 in997.6 mb 0.00 in0.0 mm 0.00 in0.0 mm 0.00 in0.0 mm
01:00 AM 56.0°F13.3°C 47.9°F8.8°C 74% 1.5 mph NW2.4 kmh NW 3.1 mph5.0 kmh 29.46 in997.6 mb 0.00 in0.0 mm 0.00 in0.0 mm 0.00 in0.0 mm
01:05 AM 55.9°F13.3°C 47.8°F8.8°C 74% 3.1 mph 5.0 kmh 3.8 mph6.1 kmh 29.46 in997.6 mb 0.00 in0.0 mm 0.00 in0.0 mm 0.00 in0.0 mm
01:10 AM 55.9°F13.3°C 48.0°F8.9°C 74% 3.6 mph WSW5.8 kmh WSW 5.4 mph8.7 kmh 29.46 in997.6 mb 0.00 in0.0 mm 0.00 in0.0 mm 0.00 in0.0 mm
01:15 AM 55.9°F13.3°C 48.1°F8.9°C 75% 3.5 mph SW5.6 kmh SW 6.9 mph11.1 kmh 29.45 in997.3 mb 0.00 in0.0 mm 0.00 in0.0 mm 0.00 in0.0 mm
01:20 AM 55.9°F13.3°C 48.1°F8.9°C 75% 2.8 mph SW4.5 kmh SW 6.0 mph9.7 kmh 29.45 in997.3 mb 0.00 in0.0 mm 0.00 in0.0 mm 0.00 in0.0 mm
01:25 AM 55.9°F13.3°C 48.1°F8.9°C 75% 5.3 mph S8.5 kmh S 12.1 mph19.5 kmh 29.45 in997.3 mb 0.00 in0.0 mm 0.00 in0.0 mm 0.00 in0.0 mm
01:30 AM 55.9°F13.3°C 48.1°F8.9°C 75% 2.8 mph SSE4.5 kmh SSE 6.9 mph11.1 kmh 29.45 in997.3 mb 0.00 in0.0 mm 0.00 in0.0 mm 0.00 in0.0 mm
01:35 AM 55.9°F13.3°C 48.1°F8.9°C 75% 3.0 mph SE4.8 kmh SE 5.4 mph8.7 kmh 29.45 in997.3 mb 0.00 in0.0 mm 0.00 in0.0 mm 0.00 in0.0 mm
01:40 AM 55.9°F13.3°C 48.1°F8.9°C 75% 1.8 mph SSW2.9 kmh SSW 4.5 mph7.2 kmh 29.45 in997.3 mb 0.00 in0.0 mm 0.00 in0.0 mm 0.00 in0.0 mm
01:45 AM 55.9°F13.3°C 48.1°F8.9°C 75% 3.1 mph WSW5.0 kmh WSW 5.4 mph8.7 kmh 29.45 in997.3 mb 0.00 in0.0 mm 0.00 in0.0 mm 0.00 in0.0 mm
01:50 AM 55.9°F13.3°C 48.1°F8.9°C 75% 3.5 mph SW5.6 kmh SW 6.9 mph11.1 kmh 29.45 in997.3 mb 0.00 in0.0 mm 0.00 in0.0 mm 0.00 in0.0 mm
01:55 AM 56.1°F13.4°C 48.2°F9.0°C 75% 1.6 mph N2.6 kmh N 3.1 mph5.0 kmh 29.45 in997.3 mb 0.00 in0.0 mm 0.00 in0.0 mm 0.00 in0.0 mm
02:00 AM 56.1°F13.4°C 48.3°F9.1°C 75% 3.5 mph SW5.6 kmh SW 6.9 mph11.1 kmh 29.45 in997.3 mb 0.00 in0.0 mm 0.00 in0.0 mm 0.00 in0.0 mm
02:05 AM 56.1°F13.4°C 48.3°F9.1°C 75% 3.1 mph NE5.0 kmh NE 3.8 mph6.1 kmh 29.45 in997.3 mb 0.00 in0.0 mm 0.00 in0.0 mm 0.00 in0.0 mm
02:10 AM 56.1°F13.4°C 48.3°F9.1°C 75% 6.0 mph S9.7 kmh S 15.2 mph24.5 kmh 29.44 in997.0 mb 0.00 in0.0 mm 0.00 in0.0 mm 0.00 in0.0 mm
02:15 AM 56.1°F13.4°C 48.3°F9.1°C 75% 6.9 mph SE11.1 kmh SE 9.8 mph15.8 kmh 29.44 in997.0 mb 0.00 in0.0 mm 0.00 in0.0 mm 0.00 in0.0 mm
02:20 AM 56.1°F13.4°C 48.3°F9.1°C 75% 6.7 mph SE10.8 kmh SE 13.0 mph20.9 kmh 29.44 in997.0 mb 0.00 in0.0 mm 0.00 in0.0 mm 0.00 in0.0 mm
02:25 AM 55.9°F13.3°C 48.1°F8.9°C 75% 6.9 mph ESE11.1 kmh ESE 10.7 mph17.2 kmh 29.44 in997.0 mb 0.00 in0.0 mm 0.00 in0.0 mm 0.00 in0.0 mm
02:30 AM 56.0°F13.3°C 48.2°F9.0°C 75% 7.4 mph SE11.9 kmh SE 9.8 mph15.8 kmh 29.44 in997.0 mb 0.00 in0.0 mm 0.00 in0.0 mm 0.00 in0.0 mm
02:35 AM 56.1°F13.4°C 48.3°F9.1°C 75% 5.6 mph SSW9.0 kmh SSW 9.2 mph14.8 kmh 29.44 in997.0 mb 0.00 in0.0 mm 0.00 in0.0 mm 0.00 in0.0 mm
02:40 AM 56.1°F13.4°C 48.3°F9.1°C 75% 4.4 mph SSE7.1 kmh SSE 9.2 mph14.8 kmh 29.44 in997.0 mb 0.00 in0.0 mm 0.00 in0.0 mm 0.00 in0.0 mm
02:45 AM 56.1°F13.4°C 48.3°F9.1°C 75% 4.2 mph SE6.8 kmh SE 6.9 mph11.1 kmh 29.43 in996.6 mb 0.00 in0.0 mm 0.00 in0.0 mm 0.00 in0.0 mm
02:50 AM 56.1°F13.4°C 48.3°F9.1°C 75% 3.6 mph SE5.8 kmh SE 6.9 mph11.1 kmh 29.43 in996.6 mb 0.00 in0.0 mm 0.00 in0.0 mm 0.00 in0.0 mm
02:55 AM 56.1°F13.4°C 48.3°F9.1°C 75% 3.4 mph SW5.5 kmh SW 6.9 mph11.1 kmh 29.43 in996.6 mb 0.00 in0.0 mm 0.00 in0.0 mm 0.00 in0.0 mm
03:00 AM 56.1°F13.4°C 48.3°F9.1°C 75% 6.9 mph SSW11.1 kmh SSW 14.5 mph23.3 kmh 29.43 in996.6 mb 0.00 in0.0 mm 0.00 in0.0 mm 0.00 in0.0 mm
03:05 AM 56.3°F13.5°C 48.5°F9.2°C 75% 7.2 mph SSW11.6 kmh SSW 10.7 mph17.2 kmh 29.43 in996.6 mb 0.00 in0.0 mm 0.00 in0.0 mm 0.00 in0.0 mm
03:10 AM 56.3°F13.5°C 48.5°F9.2°C 75% 8.7 mph S14.0 kmh S 13.0 mph20.9 kmh 29.43 in996.6 mb 0.00 in0.0 mm 0.00 in0.0 mm 0.00 in0.0 mm
03:15 AM 56.4°F13.6°C 48.6°F9.2°C 75% 10.4 mph SSW16.7 kmh SSW 14.5 mph23.3 kmh 29.43 in996.6 mb 0.00 in0.0 mm 0.00 in0.0 mm 0.00 in0.0 mm
03:20 AM 56.5°F13.6°C 48.7°F9.3°C 75% 9.7 mph SSW15.6 kmh SSW 16.8 mph27.0 kmh 29.43 in996.6 mb 0.00 in0.0 mm 0.00 in0.0 mm 0.00 in0.0 mm
03:25 AM 56.5°F13.6°C 48.7°F9.3°C 75% 12.0 mph S19.3 kmh S 15.9 mph25.6 kmh 29.43 in996.6 mb 0.00 in0.0 mm 0.00 in0.0 mm 0.00 in0.0 mm
03:30 AM 56.5°F13.6°C 48.7°F9.3°C 75% 11.0 mph SSW17.7 kmh SSW 16.8 mph27.0 kmh 29.43 in996.6 mb 0.00 in0.0 mm 0.00 in0.0 mm 0.00 in0.0 mm
03:35 AM 56.5°F13.6°C 48.4°F9.1°C 74% 12.4 mph S20.0 kmh S 17.4 mph28.0 kmh 29.42 in996.3 mb 0.00 in0.0 mm 0.00 in0.0 mm 0.00 in0.0 mm
03:40 AM 56.7°F13.7°C 48.5°F9.2°C 74% 12.2 mph SSW19.6 kmh SSW 19.0 mph30.6 kmh 29.43 in996.6 mb 0.00 in0.0 mm 0.00 in0.0 mm 0.00 in0.0 mm
03:45 AM 56.7°F13.7°C 48.5°F9.2°C 74% 11.0 mph S17.7 kmh S 15.9 mph25.6 kmh 29.42 in996.3 mb 0.00 in0.0 mm 0.00 in0.0 mm 0.00 in0.0 mm
03:50 AM 56.7°F13.7°C 48.5°F9.2°C 74% 13.2 mph S21.2 kmh S 19.0 mph30.6 kmh 29.42 in996.3 mb 0.00 in0.0 mm 0.00 in0.0 mm 0.00 in0.0 mm
03:55 AM 56.6°F13.7°C 48.4°F9.1°C 74% 7.8 mph SSW12.6 kmh SSW 9.8 mph15.8 kmh 29.42 in996.3 mb 0.00 in0.0 mm 0.00 in0.0 mm 0.00 in0.0 mm
04:00 AM 56.5°F13.6°C 48.3°F9.1°C 74% 8.3 mph S13.4 kmh S 10.7 mph17.2 kmh 29.42 in996.3 mb 0.00 in0.0 mm 0.00 in0.0 mm 0.00 in0.0 mm
04:05 AM 56.5°F13.6°C 48.7°F9.3°C 75% 6.9 mph SE11.1 kmh SE 8.3 mph13.4 kmh 29.42 in996.3 mb 0.00 in0.0 mm 0.00 in0.0 mm 0.00 in0.0 mm
04:10 AM 56.4°F13.6°C 48.6°F9.2°C 75% 5.5 mph S8.9 kmh S 8.3 mph13.4 kmh 29.41 in995.9 mb 0.00 in0.0 mm 0.00 in0.0 mm 0.00 in0.0 mm
04:15 AM 56.3°F13.5°C 48.5°F9.2°C 75% 5.3 mph S8.5 kmh S 9.2 mph14.8 kmh 29.42 in996.3 mb 0.00 in0.0 mm 0.00 in0.0 mm 0.00 in0.0 mm
04:20 AM 56.3°F13.5°C 48.5°F9.2°C 75% 6.2 mph SSE10.0 kmh SSE 11.4 mph18.3 kmh 29.42 in996.3 mb 0.00 in0.0 mm 0.00 in0.0 mm 0.00 in0.0 mm
04:25 AM 56.3°F13.5°C 48.5°F9.2°C 75% 5.8 mph S9.3 kmh S 10.7 mph17.2 kmh 29.42 in996.3 mb 0.00 in0.0 mm 0.00 in0.0 mm 0.00 in0.0 mm
04:30 AM 56.3°F13.5°C 48.5°F9.2°C 75% 4.0 mph SW6.4 kmh SW 9.8 mph15.8 kmh 29.42 in996.3 mb 0.00 in0.0 mm 0.00 in0.0 mm 0.00 in0.0 mm
04:35 AM 56.3°F13.5°C 48.5°F9.2°C 75% 6.6 mph S10.6 kmh S 10.7 mph17.2 kmh 29.42 in996.3 mb 0.00 in0.0 mm 0.00 in0.0 mm 0.00 in0.0 mm
04:40 AM 56.1°F13.4°C 48.3°F9.1°C 75% 5.8 mph S9.3 kmh S 9.8 mph15.8 kmh 29.42 in996.3 mb 0.00 in0.0 mm 0.00 in0.0 mm 0.00 in0.0 mm
04:45 AM 56.1°F13.4°C 48.3°F9.1°C 75% 6.1 mph S9.8 kmh S 13.0 mph20.9 kmh 29.42 in996.3 mb 0.00 in0.0 mm 0.00 in0.0 mm 0.00 in0.0 mm
04:50 AM 56.1°F13.4°C 48.4°F9.1°C 75% 6.3 mph S10.1 kmh S 10.7 mph17.2 kmh 29.42 in996.3 mb 0.00 in0.0 mm 0.00 in0.0 mm 0.00 in0.0 mm
04:55 AM 56.0°F13.3°C 48.5°F9.2°C 76% 3.4 mph S5.5 kmh S 6.9 mph11.1 kmh 29.42 in996.3 mb 0.00 in0.0 mm 0.00 in0.0 mm 0.00 in0.0 mm
05:00 AM 55.9°F13.3°C 48.5°F9.2°C 76% 2.6 mph SE4.2 kmh SE 4.5 mph7.2 kmh 29.41 in995.9 mb 0.00 in0.0 mm 0.00 in0.0 mm 0.00 in0.0 mm
05:05 AM 55.9°F13.3°C 48.5°F9.2°C 76% 2.1 mph SW3.4 kmh SW 3.8 mph6.1 kmh 29.41 in995.9 mb 0.00 in0.0 mm 0.00 in0.0 mm 0.00 in0.0 mm
05:10 AM 55.9°F13.3°C 48.5°F9.2°C 76% 5.4 mph E8.7 kmh E 13.6 mph21.9 kmh 29.41 in995.9 mb 0.00 in0.0 mm 0.00 in0.0 mm 0.00 in0.0 mm
05:15 AM 55.8°F13.2°C 48.3°F9.1°C 76% 7.4 mph ESE11.9 kmh ESE 10.7 mph17.2 kmh 29.41 in995.9 mb 0.00 in0.0 mm 0.00 in0.0 mm 0.00 in0.0 mm
05:20 AM 55.8°F13.2°C 48.3°F9.1°C 76% 3.8 mph S6.1 kmh S 6.9 mph11.1 kmh 29.41 in995.9 mb 0.00 in0.0 mm 0.00 in0.0 mm 0.00 in0.0 mm
05:25 AM 55.8°F13.2°C 48.3°F9.1°C 76% 4.9 mph SSE7.9 kmh SSE 9.2 mph14.8 kmh 29.41 in995.9 mb 0.00 in0.0 mm 0.00 in0.0 mm 0.00 in0.0 mm
05:30 AM 55.8°F13.2°C 48.3°F9.1°C 76% 3.7 mph S6.0 kmh S 6.0 mph9.7 kmh 29.41 in995.9 mb 0.00 in0.0 mm 0.00 in0.0 mm 0.00 in0.0 mm
05:35 AM 55.8°F13.2°C 48.3°F9.1°C 76% 3.4 mph SSW5.5 kmh SSW 7.6 mph12.2 kmh 29.41 in995.9 mb 0.00 in0.0 mm 0.00 in0.0 mm 0.00 in0.0 mm
05:40 AM 55.8°F13.2°C 48.3°F9.1°C 76% 1.7 mph E2.7 kmh E 3.8 mph6.1 kmh 29.41 in995.9 mb 0.00 in0.0 mm 0.00 in0.0 mm 0.00 in0.0 mm
05:45 AM 55.7°F13.2°C 48.3°F9.1°C 76% 1.5 mph N2.4 kmh N 3.1 mph5.0 kmh 29.41 in995.9 mb 0.00 in0.0 mm 0.00 in0.0 mm 0.00 in0.0 mm
05:50 AM 55.6°F13.1°C 48.1°F8.9°C 76% 2.4 mph WSW3.9 kmh WSW 6.0 mph9.7 kmh 29.41 in995.9 mb 0.00 in0.0 mm 0.00 in0.0 mm 0.00 in0.0 mm
05:55 AM 55.6°F13.1°C 48.2°F9.0°C 76% 5.4 mph SSW8.7 kmh SSW 7.6 mph12.2 kmh 29.41 in995.9 mb 0.00 in0.0 mm 0.00 in0.0 mm 0.00 in0.0 mm
06:00 AM 55.8°F13.2°C 48.3°F9.1°C 76% 6.6 mph SSW10.6 kmh SSW 9.8 mph15.8 kmh 29.41 in995.9 mb 0.00 in0.0 mm 0.00 in0.0 mm 0.00 in0.0 mm
06:05 AM 55.8°F13.2°C 48.3°F9.1°C 76% 9.8 mph S15.8 kmh S 11.4 mph18.3 kmh 29.41 in995.9 mb 0.00 in0.0 mm 0.00 in0.0 mm 0.00 in0.0 mm
06:10 AM 55.9°F13.3°C 48.4°F9.1°C 76% 7.3 mph S11.7 kmh S 11.4 mph18.3 kmh 29.41 in995.9 mb 0.00 in0.0 mm 0.00 in0.0 mm 0.00 in0.0 mm
06:15 AM 56.1°F13.4°C 48.7°F9.3°C 76% 5.2 mph SSW8.4 kmh SSW 9.2 mph14.8 kmh 29.41 in995.9 mb 0.00 in0.0 mm 0.00 in0.0 mm 0.00 in0.0 mm
06:20 AM 56.3°F13.5°C 48.6°F9.2°C 76% 5.0 mph S8.0 kmh S 9.2 mph14.8 kmh 29.41 in995.9 mb 0.00 in0.0 mm 0.00 in0.0 mm 0.00 in0.0 mm
06:25 AM 56.4°F13.6°C 48.6°F9.2°C 75% 4.6 mph SW7.4 kmh SW 7.6 mph12.2 kmh 29.41 in995.9 mb 0.00 in0.0 mm 0.00 in0.0 mm 0.00 in0.0 mm
06:30 AM 56.5°F13.6°C 48.7°F9.3°C 75% 5.0 mph SSW8.0 kmh SSW 9.2 mph14.8 kmh 29.41 in995.9 mb 0.00 in0.0 mm 0.00 in0.0 mm 0.00 in0.0 mm
06:35 AM 56.5°F13.6°C 48.7°F9.3°C 75% 8.4 mph SSW13.5 kmh SSW 12.1 mph19.5 kmh 29.41 in995.9 mb 0.00 in0.0 mm 0.00 in0.0 mm 0.00 in0.0 mm
06:40 AM 56.5°F13.6°C 48.7°F9.3°C 75% 9.5 mph S15.3 kmh S 13.0 mph20.9 kmh 29.41 in995.9 mb 0.00 in0.0 mm 0.00 in0.0 mm 0.00 in0.0 mm
06:45 AM 56.6°F13.7°C 48.8°F9.3°C 75% 7.4 mph S11.9 kmh S 12.1 mph19.5 kmh 29.41 in995.9 mb 0.00 in0.0 mm 0.00 in0.0 mm 0.00 in0.0 mm
06:50 AM 56.5°F13.6°C 48.7°F9.3°C 75% 7.6 mph SSW12.2 kmh SSW 13.6 mph21.9 kmh 29.41 in995.9 mb 0.00 in0.0 mm 0.00 in0.0 mm 0.00 in0.0 mm
06:55 AM 56.5°F13.6°C 48.6°F9.2°C 75% 7.1 mph S11.4 kmh S 14.5 mph23.3 kmh 29.41 in995.9 mb 0.00 in0.0 mm 0.00 in0.0 mm 0.00 in0.0 mm
07:00 AM 56.3°F13.5°C 48.5°F9.2°C 75% 6.2 mph SSW10.0 kmh SSW 9.2 mph14.8 kmh 29.41 in995.9 mb 0.00 in0.0 mm 0.00 in0.0 mm 0.00 in0.0 mm
07:05 AM 56.4°F13.6°C 48.9°F9.4°C 76% 9.3 mph S15.0 kmh S 13.6 mph21.9 kmh 29.41 in995.9 mb 0.00 in0.0 mm 0.00 in0.0 mm 0.00 in0.0 mm
07:10 AM 56.6°F13.7°C 49.1°F9.5°C 76% 8.8 mph S14.2 kmh S 13.6 mph21.9 kmh 29.41 in995.9 mb 0.00 in0.0 mm 0.00 in0.0 mm 0.00 in0.0 mm
07:15 AM 56.7°F13.7°C 49.0°F9.4°C 76% 7.3 mph SSW11.7 kmh SSW 11.4 mph18.3 kmh 29.41 in995.9 mb 0.00 in0.0 mm 0.00 in0.0 mm 0.00 in0.0 mm
07:20 AM 56.7°F13.7°C 48.9°F9.4°C 75% 10.8 mph S17.4 kmh S 15.9 mph25.6 kmh 29.41 in995.9 mb 0.00 in0.0 mm 0.00 in0.0 mm 0.00 in0.0 mm
07:25 AM 56.6°F13.7°C 48.8°F9.3°C 75% 12.8 mph S20.6 kmh S 17.4 mph28.0 kmh 29.41 in995.9 mb 0.00 in0.0 mm 0.00 in0.0 mm 0.00 in0.0 mm
07:30 AM 56.5°F13.6°C 48.8°F9.3°C 75% 15.0 mph S24.1 kmh S 22.1 mph35.6 kmh 29.41 in995.9 mb 0.00 in0.0 mm 0.00 in0.0 mm 0.00 in0.0 mm
07:35 AM 56.5°F13.6°C 49.0°F9.4°C 76% 14.5 mph S23.3 kmh S 18.3 mph29.5 kmh 29.41 in995.9 mb 0.00 in0.0 mm 0.00 in0.0 mm 0.00 in0.0 mm
07:40 AM 56.5°F13.6°C 49.0°F9.4°C 76% 10.2 mph S16.4 kmh S 13.6 mph21.9 kmh 29.41 in995.9 mb 0.00 in0.0 mm 0.00 in0.0 mm 0.00 in0.0 mm
07:45 AM 56.3°F13.5°C 48.8°F9.3°C 76% 11.8 mph S19.0 kmh S 21.3 mph34.3 kmh 29.42 in996.3 mb 0.00 in0.0 mm 0.00 in0.0 mm 0.00 in0.0 mm
07:50 AM 56.3°F13.5°C 49.0°F9.4°C 77% 13.1 mph S21.1 kmh S 19.0 mph30.6 kmh 29.42 in996.3 mb 0.00 in0.0 mm 0.00 in0.0 mm 0.00 in0.0 mm
07:55 AM 56.3°F13.5°C 49.2°F9.6°C 77% 10.6 mph S17.1 kmh S 16.8 mph27.0 kmh 29.42 in996.3 mb 0.00 in0.0 mm 0.00 in0.0 mm 0.00 in0.0 mm
08:00 AM 56.3°F13.5°C 49.2°F9.6°C 77% 11.9 mph S19.2 kmh S 18.3 mph29.5 kmh 29.42 in996.3 mb 0.00 in0.0 mm 0.00 in0.0 mm 0.00 in0.0 mm
08:05 AM 56.3°F13.5°C 49.2°F9.6°C 77% 9.2 mph S14.8 kmh S 11.4 mph18.3 kmh 29.41 in995.9 mb 0.00 in0.0 mm 0.00 in0.0 mm 0.00 in0.0 mm
08:10 AM 56.3°F13.5°C 49.2°F9.6°C 77% 8.0 mph SW12.9 kmh SW 11.4 mph18.3 kmh 29.42 in996.3 mb 0.00 in0.0 mm 0.00 in0.0 mm 0.00 in0.0 mm
08:15 AM 56.5°F13.6°C 49.3°F9.6°C 77% 7.5 mph SSE12.1 kmh SSE 13.6 mph21.9 kmh 29.42 in996.3 mb 0.00 in0.0 mm 0.00 in0.0 mm 0.00 in0.0 mm
08:20 AM 56.3°F13.5°C 49.2°F9.6°C 77% 4.4 mph SSE7.1 kmh SSE 7.6 mph12.2 kmh 29.42 in996.3 mb 0.00 in0.0 mm 0.00 in0.0 mm 0.00 in0.0 mm
08:25 AM 56.2°F13.4°C 49.2°F9.6°C 77% 6.4 mph NE10.3 kmh NE 9.8 mph15.8 kmh 29.43 in996.6 mb 0.01 in0.3 mm 0.12 in3.0 mm 0.01 in0.3 mm
08:30 AM 56.1°F13.4°C 49.3°F9.6°C 78% 2.4 mph E3.9 kmh E 3.8 mph6.1 kmh 29.43 in996.6 mb 0.01 in0.3 mm 0.00 in0.0 mm 0.01 in0.3 mm
08:35 AM 55.9°F13.3°C 49.2°F9.6°C 78% 3.1 mph ENE5.0 kmh ENE 4.5 mph7.2 kmh 29.42 in996.3 mb 0.01 in0.3 mm 0.00 in0.0 mm 0.01 in0.3 mm
08:40 AM 55.8°F13.2°C 49.2°F9.6°C 79% 3.5 mph N5.6 kmh N 6.0 mph9.7 kmh 29.42 in996.3 mb 0.01 in0.3 mm 0.00 in0.0 mm 0.01 in0.3 mm
08:45 AM 55.7°F13.2°C 49.2°F9.6°C 79% 4.6 mph SW7.4 kmh SW 8.3 mph13.4 kmh 29.42 in996.3 mb 0.01 in0.3 mm 0.00 in0.0 mm 0.01 in0.3 mm
08:50 AM 55.6°F13.1°C 49.4°F9.7°C 80% 2.4 mph S3.9 kmh S 5.4 mph8.7 kmh 29.42 in996.3 mb 0.01 in0.3 mm 0.00 in0.0 mm 0.01 in0.3 mm
08:55 AM 55.7°F13.2°C 49.6°F9.8°C 80% 7.2 mph S11.6 kmh S 13.6 mph21.9 kmh 29.42 in996.3 mb 0.01 in0.3 mm 0.00 in0.0 mm 0.01 in0.3 mm
09:00 AM 55.8°F13.2°C 49.7°F9.8°C 80% 10.3 mph S16.6 kmh S 15.2 mph24.5 kmh 29.42 in996.3 mb 0.01 in0.3 mm 0.00 in0.0 mm 0.01 in0.3 mm
09:05 AM 55.8°F13.2°C 49.8°F9.9°C 80% 10.4 mph S16.7 kmh S 14.5 mph23.3 kmh 29.42 in996.3 mb 0.01 in0.3 mm 0.00 in0.0 mm 0.02 in0.5 mm
09:10 AM 55.9°F13.3°C 49.9°F9.9°C 80% 10.5 mph S16.9 kmh S 15.2 mph24.5 kmh 29.42 in996.3 mb 0.01 in0.3 mm 0.00 in0.0 mm 0.02 in0.5 mm
09:15 AM 55.9°F13.3°C 49.9°F9.9°C 80% 9.1 mph SSW14.6 kmh SSW 12.1 mph19.5 kmh 29.42 in996.3 mb 0.02 in0.5 mm 0.12 in3.0 mm 0.02 in0.5 mm
09:20 AM 55.9°F13.3°C 49.8°F9.9°C 80% 8.8 mph SW14.2 kmh SW 14.5 mph23.3 kmh 29.42 in996.3 mb 0.02 in0.5 mm 0.00 in0.0 mm 0.03 in0.8 mm
09:25 AM 55.8°F13.2°C 49.7°F9.8°C 80% 8.6 mph S13.8 kmh S 11.4 mph18.3 kmh 29.42 in996.3 mb 0.02 in0.5 mm 0.00 in0.0 mm 0.03 in0.8 mm
09:30 AM 55.8°F13.2°C 49.7°F9.8°C 80% 11.4 mph S18.3 kmh S 14.5 mph23.3 kmh 29.42 in996.3 mb 0.01 in0.3 mm 0.00 in0.0 mm 0.03 in0.8 mm
09:35 AM 55.8°F13.2°C 49.8°F9.9°C 80% 11.5 mph S18.5 kmh S 19.7 mph31.7 kmh 29.42 in996.3 mb 0.01 in0.3 mm 0.00 in0.0 mm 0.03 in0.8 mm
09:40 AM 56.2°F13.4°C 50.1°F10.1°C 80% 13.0 mph S20.9 kmh S 20.6 mph33.2 kmh 29.42 in996.3 mb 0.01 in0.3 mm 0.00 in0.0 mm 0.03 in0.8 mm
09:45 AM 56.4°F13.6°C 50.3°F10.2°C 80% 11.3 mph SSW18.2 kmh SSW 16.8 mph27.0 kmh 29.42 in996.3 mb 0.01 in0.3 mm 0.00 in0.0 mm 0.03 in0.8 mm
09:50 AM 56.5°F13.6°C 50.3°F10.2°C 80% 13.4 mph SW21.6 kmh SW 20.6 mph33.2 kmh 29.41 in995.9 mb 0.01 in0.3 mm 0.00 in0.0 mm 0.03 in0.8 mm
09:55 AM 56.8°F13.8°C 50.2°F10.1°C 79% 12.3 mph SSW19.8 kmh SSW 18.3 mph29.5 kmh 29.41 in995.9 mb 0.01 in0.3 mm 0.00 in0.0 mm 0.03 in0.8 mm
10:00 AM 56.9°F13.8°C 50.1°F10.1°C 78% 13.5 mph SW21.7 kmh SW 17.4 mph28.0 kmh 29.41 in995.9 mb 0.01 in0.3 mm 0.00 in0.0 mm 0.03 in0.8 mm
10:05 AM 57.0°F13.9°C 49.9°F9.9°C 77% 16.8 mph S27.0 kmh S 19.7 mph31.7 kmh 29.41 in995.9 mb 0.01 in0.3 mm 0.00 in0.0 mm 0.03 in0.8 mm
10:10 AM 57.0°F13.9°C 49.7°F9.8°C 76% 14.6 mph S23.5 kmh S 19.7 mph31.7 kmh 29.41 in995.9 mb 0.01 in0.3 mm 0.00 in0.0 mm 0.03 in0.8 mm
10:15 AM 57.0°F13.9°C 49.9°F9.9°C 77% 11.5 mph S18.5 kmh S 18.3 mph29.5 kmh 29.41 in995.9 mb 0.00 in0.0 mm 0.00 in0.0 mm 0.03 in0.8 mm
10:20 AM 57.0°F13.9°C 49.9°F9.9°C 77% 12.0 mph SSW19.3 kmh SSW 19.0 mph30.6 kmh 29.40 in995.6 mb 0.00 in0.0 mm 0.00 in0.0 mm 0.03 in0.8 mm
10:25 AM 56.8°F13.8°C 50.1°F10.1°C 78% 15.2 mph SSW24.5 kmh SSW 21.3 mph34.3 kmh 29.41 in995.9 mb 0.00 in0.0 mm 0.00 in0.0 mm 0.03 in0.8 mm
10:30 AM 56.8°F13.8°C 50.0°F10.0°C 78% 15.6 mph S25.1 kmh S 20.6 mph33.2 kmh 29.41 in995.9 mb 0.00 in0.0 mm 0.00 in0.0 mm 0.03 in0.8 mm
10:35 AM 56.7°F13.7°C 50.0°F10.0°C 78% 12.0 mph S19.3 kmh S 19.0 mph30.6 kmh 29.40 in995.6 mb 0.00 in0.0 mm 0.00 in0.0 mm 0.03 in0.8 mm
10:40 AM 56.7°F13.7°C 50.2°F10.1°C 79% 11.6 mph SSW18.7 kmh SSW 16.8 mph27.0 kmh 29.41 in995.9 mb 0.00 in0.0 mm 0.00 in0.0 mm 0.03 in0.8 mm
10:45 AM 56.6°F13.7°C 50.1°F10.1°C 79% 15.6 mph S25.1 kmh S 21.3 mph34.3 kmh 29.41 in995.9 mb 0.00 in0.0 mm 0.00 in0.0 mm 0.03 in0.8 mm
10:50 AM 56.7°F13.7°C 50.2°F10.1°C 79% 13.7 mph SSW22.0 kmh SSW 23.5 mph37.8 kmh 29.40 in995.6 mb 0.00 in0.0 mm 0.00 in0.0 mm 0.03 in0.8 mm
10:55 AM 56.6°F13.7°C 50.2°F10.1°C 79% 12.8 mph S20.6 kmh S 19.0 mph30.6 kmh 29.40 in995.6 mb 0.00 in0.0 mm 0.00 in0.0 mm 0.03 in0.8 mm
11:00 AM 56.5°F13.6°C 50.0°F10.0°C 79% 13.1 mph SSW21.1 kmh SSW 19.7 mph31.7 kmh 29.39 in995.3 mb 0.00 in0.0 mm 0.00 in0.0 mm 0.03 in0.8 mm
11:05 AM 56.5°F13.6°C 50.1°F10.1°C 79% 11.3 mph SW18.2 kmh SW 19.7 mph31.7 kmh 29.39 in995.3 mb 0.00 in0.0 mm 0.00 in0.0 mm 0.03 in0.8 mm
11:10 AM 56.7°F13.7°C 50.2°F10.1°C 79% 11.6 mph SW18.7 kmh SW 15.9 mph25.6 kmh 29.39 in995.3 mb 0.00 in0.0 mm 0.00 in0.0 mm 0.03 in0.8 mm
11:15 AM 56.5°F13.6°C 50.0°F10.0°C 79% 11.8 mph SW19.0 kmh SW 15.9 mph25.6 kmh 29.40 in995.6 mb 0.00 in0.0 mm 0.00 in0.0 mm 0.03 in0.8 mm
11:20 AM 56.4°F13.6°C 50.0°F10.0°C 79% 12.1 mph SW19.5 kmh SW 18.3 mph29.5 kmh 29.40 in995.6 mb 0.00 in0.0 mm 0.00 in0.0 mm 0.03 in0.8 mm
11:25 AM 56.2°F13.4°C 49.9°F9.9°C 79% 9.8 mph SSW15.8 kmh SSW 15.2 mph24.5 kmh 29.39 in995.3 mb 0.00 in0.0 mm 0.00 in0.0 mm 0.03 in0.8 mm
11:30 AM 56.1°F13.4°C 50.0°F10.0°C 80% 10.7 mph SW17.2 kmh SW 14.5 mph23.3 kmh 29.39 in995.3 mb 0.00 in0.0 mm 0.00 in0.0 mm 0.03 in0.8 mm
11:35 AM 56.1°F13.4°C 50.0°F10.0°C 80% 11.1 mph SW17.9 kmh SW 15.2 mph24.5 kmh 29.39 in995.3 mb 0.00 in0.0 mm 0.00 in0.0 mm 0.03 in0.8 mm
11:40 AM 56.0°F13.3°C 49.9°F9.9°C 80% 10.4 mph SW16.7 kmh SW 16.8 mph27.0 kmh 29.39 in995.3 mb 0.00 in0.0 mm 0.00 in0.0 mm 0.03 in0.8 mm
11:45 AM 56.0°F13.3°C 49.9°F9.9°C 80% 9.8 mph SSW15.8 kmh SSW 13.0 mph20.9 kmh 29.39 in995.3 mb 0.00 in0.0 mm 0.00 in0.0 mm 0.03 in0.8 mm
11:50 AM 56.1°F13.4°C 50.0°F10.0°C 80% 9.5 mph SW15.3 kmh SW 14.5 mph23.3 kmh 29.39 in995.3 mb 0.00 in0.0 mm 0.00 in0.0 mm 0.03 in0.8 mm
11:55 AM 56.1°F13.4°C 50.0°F10.0°C 80% 10.4 mph SW16.7 kmh SW 16.8 mph27.0 kmh 29.39 in995.3 mb 0.00 in0.0 mm 0.00 in0.0 mm 0.03 in0.8 mm
12:00 PM 56.2°F13.4°C 50.1°F10.1°C 80% 13.7 mph SSW22.0 kmh SSW 19.0 mph30.6 kmh 29.39 in995.3 mb 0.00 in0.0 mm 0.00 in0.0 mm 0.03 in0.8 mm
12:05 PM 56.3°F13.5°C 50.2°F10.1°C 80% 14.5 mph SW23.3 kmh SW 18.3 mph29.5 kmh 29.39 in995.3 mb 0.00 in0.0 mm 0.00 in0.0 mm 0.03 in0.8 mm
12:10 PM 56.4°F13.6°C 50.3°F10.2°C 80% 13.9 mph SW22.4 kmh SW 18.3 mph29.5 kmh 29.38 in994.9 mb 0.00 in0.0 mm 0.00 in0.0 mm 0.03 in0.8 mm
12:15 PM 56.8°F13.8°C 50.7°F10.4°C 80% 9.5 mph SSW15.3 kmh SSW 15.2 mph24.5 kmh 29.38 in994.9 mb 0.00 in0.0 mm 0.00 in0.0 mm 0.03 in0.8 mm
12:20 PM 56.8°F13.8°C 50.7°F10.4°C 80% 10.9 mph SSW17.5 kmh SSW 15.9 mph25.6 kmh 29.38 in994.9 mb 0.00 in0.0 mm 0.00 in0.0 mm 0.03 in0.8 mm
12:25 PM 56.8°F13.8°C 50.7°F10.4°C 80% 8.9 mph SSW14.3 kmh SSW 13.6 mph21.9 kmh 29.38 in994.9 mb 0.00 in0.0 mm 0.00 in0.0 mm 0.03 in0.8 mm
12:30 PM 56.7°F13.7°C 50.6°F10.3°C 80% 8.5 mph SW13.7 kmh SW 11.4 mph18.3 kmh 29.38 in994.9 mb 0.00 in0.0 mm 0.00 in0.0 mm 0.03 in0.8 mm
12:35 PM 56.6°F13.7°C 50.5°F10.3°C 80% 11.5 mph SSW18.5 kmh SSW 15.9 mph25.6 kmh 29.38 in994.9 mb 0.00 in0.0 mm 0.00 in0.0 mm 0.03 in0.8 mm
12:40 PM 56.5°F13.6°C 50.4°F10.2°C 80% 14.6 mph S23.5 kmh S 20.6 mph33.2 kmh 29.38 in994.9 mb 0.00 in0.0 mm 0.00 in0.0 mm 0.03 in0.8 mm
12:45 PM 56.5°F13.6°C 50.4°F10.2°C 80% 14.8 mph S23.8 kmh S 20.6 mph33.2 kmh 29.38 in994.9 mb 0.00 in0.0 mm 0.00 in0.0 mm 0.03 in0.8 mm
12:50 PM 56.5°F13.6°C 50.4°F10.2°C 80% 8.3 mph SSW13.4 kmh SSW 12.1 mph19.5 kmh 29.37 in994.6 mb 0.01 in0.3 mm 0.12 in3.0 mm 0.04 in1.0 mm
12:55 PM 56.5°F13.6°C 50.4°F10.2°C 80% 8.5 mph S13.7 kmh S 11.4 mph18.3 kmh 29.37 in994.6 mb 0.01 in0.3 mm 0.00 in0.0 mm 0.04 in1.0 mm
01:00 PM 56.5°F13.6°C 50.4°F10.2°C 80% 7.1 mph S11.4 kmh S 9.8 mph15.8 kmh 29.38 in994.9 mb 0.01 in0.3 mm 0.00 in0.0 mm 0.04 in1.0 mm
01:05 PM 56.3°F13.5°C 50.4°F10.2°C 81% 7.0 mph S11.3 kmh S 10.7 mph17.2 kmh 29.37 in994.6 mb 0.01 in0.3 mm 0.00 in0.0 mm 0.04 in1.0 mm
01:10 PM 56.3°F13.5°C 50.5°F10.3°C 81% 7.6 mph S12.2 kmh S 11.4 mph18.3 kmh 29.37 in994.6 mb 0.01 in0.3 mm 0.00 in0.0 mm 0.04 in1.0 mm
01:15 PM 56.3°F13.5°C 50.5°F10.3°C 81% 9.1 mph SSE14.6 kmh SSE 14.5 mph23.3 kmh 29.37 in994.6 mb 0.01 in0.3 mm 0.00 in0.0 mm 0.04 in1.0 mm
01:20 PM 56.1°F13.4°C 50.4°F10.2°C 81% 9.3 mph S15.0 kmh S 15.9 mph25.6 kmh 29.37 in994.6 mb 0.01 in0.3 mm 0.00 in0.0 mm 0.04 in1.0 mm
01:25 PM 56.1°F13.4°C 50.4°F10.2°C 81% 11.9 mph S19.2 kmh S 16.8 mph27.0 kmh 29.37 in994.6 mb 0.01 in0.3 mm 0.00 in0.0 mm 0.04 in1.0 mm
01:30 PM 56.2°F13.4°C 50.4°F10.2°C 81% 10.3 mph S16.6 kmh S 14.5 mph23.3 kmh 29.36 in994.2 mb 0.01 in0.3 mm 0.00 in0.0 mm 0.04 in1.0 mm
01:35 PM 56.3°F13.5°C 50.5°F10.3°C 81% 8.9 mph S14.3 kmh S 12.1 mph19.5 kmh 29.36 in994.2 mb 0.01 in0.3 mm 0.00 in0.0 mm 0.05 in1.3 mm
01:40 PM 56.3°F13.5°C 50.5°F10.3°C 81% 9.7 mph SSW15.6 kmh SSW 13.0 mph20.9 kmh 29.37 in994.6 mb 0.01 in0.3 mm 0.00 in0.0 mm 0.05 in1.3 mm
01:45 PM 56.3°F13.5°C 50.5°F10.3°C 81% 9.6 mph S15.4 kmh S 14.5 mph23.3 kmh 29.37 in994.6 mb 0.01 in0.3 mm 0.00 in0.0 mm 0.05 in1.3 mm
01:50 PM 56.3°F13.5°C 50.5°F10.3°C 81% 9.7 mph S15.6 kmh S 14.5 mph23.3 kmh 29.37 in994.6 mb 0.01 in0.3 mm 0.00 in0.0 mm 0.05 in1.3 mm
01:55 PM 56.3°F13.5°C 50.5°F10.3°C 81% 9.1 mph S14.6 kmh S 13.0 mph20.9 kmh 29.37 in994.6 mb 0.01 in0.3 mm 0.00 in0.0 mm 0.05 in1.3 mm
02:00 PM 56.3°F13.5°C 50.7°F10.4°C 81% 10.7 mph S17.2 kmh S 14.5 mph23.3 kmh 29.37 in994.6 mb 0.01 in0.3 mm 0.00 in0.0 mm 0.05 in1.3 mm
02:05 PM 56.3°F13.5°C 50.9°F10.5°C 82% 8.3 mph S13.4 kmh S 9.8 mph15.8 kmh 29.37 in994.6 mb 0.01 in0.3 mm 0.00 in0.0 mm 0.05 in1.3 mm
02:10 PM 56.3°F13.5°C 50.9°F10.5°C 82% 7.2 mph S11.6 kmh S 9.8 mph15.8 kmh 29.37 in994.6 mb 0.01 in0.3 mm 0.00 in0.0 mm 0.05 in1.3 mm
02:15 PM 56.3°F13.5°C 50.9°F10.5°C 82% 9.8 mph S15.8 kmh S 13.6 mph21.9 kmh 29.36 in994.2 mb 0.01 in0.3 mm 0.00 in0.0 mm 0.06 in1.5 mm
02:20 PM 56.3°F13.5°C 50.9°F10.5°C 82% 6.0 mph S9.7 kmh S 11.4 mph18.3 kmh 29.36 in994.2 mb 0.01 in0.3 mm 0.00 in0.0 mm 0.06 in1.5 mm
02:25 PM 56.3°F13.5°C 50.9°F10.5°C 82% 7.5 mph SSW12.1 kmh SSW 11.4 mph18.3 kmh 29.36 in994.2 mb 0.01 in0.3 mm 0.00 in0.0 mm 0.06 in1.5 mm
02:30 PM 56.3°F13.5°C 50.9°F10.5°C 82% 6.7 mph S10.8 kmh S 10.7 mph17.2 kmh 29.36 in994.2 mb 0.01 in0.3 mm 0.00 in0.0 mm 0.06 in1.5 mm
02:35 PM 56.3°F13.5°C 50.9°F10.5°C 82% 6.7 mph S10.8 kmh S 11.4 mph18.3 kmh 29.36 in994.2 mb 0.01 in0.3 mm 0.00 in0.0 mm 0.06 in1.5 mm
02:40 PM 56.2°F13.4°C 50.8°F10.4°C 82% 5.7 mph SW9.2 kmh SW 9.2 mph14.8 kmh 29.36 in994.2 mb 0.01 in0.3 mm 0.00 in0.0 mm 0.06 in1.5 mm
02:45 PM 56.3°F13.5°C 50.8°F10.4°C 82% 5.8 mph SSW9.3 kmh SSW 9.2 mph14.8 kmh 29.36 in994.2 mb 0.02 in0.5 mm 0.12 in3.0 mm 0.07 in1.8 mm
02:50 PM 56.1°F13.4°C 50.7°F10.4°C 82% 5.3 mph SSW8.5 kmh SSW 10.7 mph17.2 kmh 29.36 in994.2 mb 0.02 in0.5 mm 0.00 in0.0 mm 0.07 in1.8 mm
02:55 PM 56.1°F13.4°C 50.7°F10.4°C 82% 6.1 mph S9.8 kmh S 8.3 mph13.4 kmh 29.36 in994.2 mb 0.02 in0.5 mm 0.00 in0.0 mm 0.07 in1.8 mm
03:00 PM 56.1°F13.4°C 50.7°F10.4°C 82% 5.1 mph S8.2 kmh S 9.2 mph14.8 kmh 29.36 in994.2 mb 0.02 in0.5 mm 0.00 in0.0 mm 0.07 in1.8 mm
03:05 PM 56.2°F13.4°C 50.9°F10.5°C 83% 8.3 mph SSW13.4 kmh SSW 14.5 mph23.3 kmh 29.36 in994.2 mb 0.02 in0.5 mm 0.00 in0.0 mm 0.07 in1.8 mm
03:10 PM 56.2°F13.4°C 51.1°F10.6°C 83% 6.5 mph SSW10.5 kmh SSW 11.4 mph18.3 kmh 29.35 in993.9 mb 0.03 in0.8 mm 0.12 in3.0 mm 0.08 in2.0 mm
03:15 PM 56.3°F13.5°C 51.2°F10.7°C 83% 7.6 mph SSW12.2 kmh SSW 11.4 mph18.3 kmh 29.35 in993.9 mb 0.02 in0.5 mm 0.00 in0.0 mm 0.08 in2.0 mm
03:20 PM 56.3°F13.5°C 51.2°F10.7°C 83% 7.3 mph S11.7 kmh S 10.7 mph17.2 kmh 29.36 in994.2 mb 0.03 in0.8 mm 0.12 in3.0 mm 0.08 in2.0 mm
03:25 PM 56.4°F13.6°C 51.3°F10.7°C 83% 8.4 mph S13.5 kmh S 13.6 mph21.9 kmh 29.35 in993.9 mb 0.02 in0.5 mm 0.00 in0.0 mm 0.08 in2.0 mm
03:30 PM 56.5°F13.6°C 51.4°F10.8°C 83% 4.3 mph SSW6.9 kmh SSW 7.6 mph12.2 kmh 29.35 in993.9 mb 0.03 in0.8 mm 0.12 in3.0 mm 0.08 in2.0 mm
03:35 PM 56.5°F13.6°C 51.4°F10.8°C 83% 5.5 mph SW8.9 kmh SW 9.8 mph15.8 kmh 29.35 in993.9 mb 0.03 in0.8 mm 0.00 in0.0 mm 0.09 in2.3 mm
03:40 PM 56.5°F13.6°C 51.4°F10.8°C 83% 4.6 mph S7.4 kmh S 10.7 mph17.2 kmh 29.35 in993.9 mb 0.03 in0.8 mm 0.00 in0.0 mm 0.09 in2.3 mm
03:45 PM 56.3°F13.5°C 51.2°F10.7°C 83% 7.1 mph SSW11.4 kmh SSW 10.7 mph17.2 kmh 29.36 in994.2 mb 0.03 in0.8 mm 0.00 in0.0 mm 0.09 in2.3 mm
03:50 PM 56.3°F13.5°C 51.2°F10.7°C 83% 5.5 mph S8.9 kmh S 8.3 mph13.4 kmh 29.35 in993.9 mb 0.03 in0.8 mm 0.00 in0.0 mm 0.10 in2.5 mm
03:55 PM 56.3°F13.5°C 51.2°F10.7°C 83% 4.7 mph SSW7.6 kmh SSW 8.3 mph13.4 kmh 29.35 in993.9 mb 0.03 in0.8 mm 0.00 in0.0 mm 0.10 in2.5 mm
04:00 PM 56.3°F13.5°C 51.2°F10.7°C 83% 6.1 mph SW9.8 kmh SW 9.2 mph14.8 kmh 29.35 in993.9 mb 0.03 in0.8 mm 0.00 in0.0 mm 0.10 in2.5 mm
04:05 PM 56.3°F13.5°C 51.2°F10.7°C 83% 3.8 mph SW6.1 kmh SW 4.5 mph7.2 kmh 29.35 in993.9 mb 0.03 in0.8 mm 0.00 in0.0 mm 0.10 in2.5 mm
04:10 PM 56.3°F13.5°C 51.2°F10.7°C 83% 5.4 mph SSW8.7 kmh SSW 8.3 mph13.4 kmh 29.35 in993.9 mb 0.03 in0.8 mm 0.00 in0.0 mm 0.11 in2.8 mm
04:15 PM 56.3°F13.5°C 51.2°F10.7°C 83% 4.1 mph S6.6 kmh S 7.6 mph12.2 kmh 29.34 in993.6 mb 0.03 in0.8 mm 0.00 in0.0 mm 0.11 in2.8 mm
04:20 PM 56.3°F13.5°C 51.2°F10.7°C 83% 4.0 mph SW6.4 kmh SW 6.0 mph9.7 kmh 29.34 in993.6 mb 0.03 in0.8 mm 0.00 in0.0 mm 0.11 in2.8 mm
04:25 PM 56.3°F13.5°C 51.2°F10.7°C 83% 4.9 mph SW7.9 kmh SW 8.3 mph13.4 kmh 29.35 in993.9 mb 0.04 in1.0 mm 0.12 in3.0 mm 0.12 in3.0 mm
04:30 PM 56.3°F13.5°C 51.2°F10.7°C 83% 6.7 mph SSW10.8 kmh SSW 9.8 mph15.8 kmh 29.36 in994.2 mb 0.07 in1.8 mm 0.36 in9.1 mm 0.16 in4.1 mm
04:35 PM 56.3°F13.5°C 51.3°F10.7°C 83% 6.1 mph SW9.8 kmh SW 8.3 mph13.4 kmh 29.36 in994.2 mb 0.08 in2.0 mm 0.12 in3.0 mm 0.17 in4.3 mm
04:40 PM 56.2°F13.4°C 51.4°F10.8°C 84% 4.3 mph SSW6.9 kmh SSW 8.3 mph13.4 kmh 29.36 in994.2 mb 0.10 in2.5 mm 0.24 in6.1 mm 0.19 in4.8 mm
04:45 PM 56.1°F13.4°C 51.4°F10.8°C 84% 2.9 mph SSW4.7 kmh SSW 4.5 mph7.2 kmh 29.35 in993.9 mb 0.12 in3.0 mm 0.24 in6.1 mm 0.21 in5.3 mm
04:50 PM 56.1°F13.4°C 51.4°F10.8°C 84% 3.5 mph S5.6 kmh S 5.4 mph8.7 kmh 29.36 in994.2 mb 0.12 in3.0 mm 0.00 in0.0 mm 0.22 in5.6 mm
04:55 PM 56.1°F13.4°C 51.4°F10.8°C 84% 1.2 mph SW1.9 kmh SW 2.2 mph3.5 kmh 29.36 in994.2 mb 0.12 in3.0 mm 0.00 in0.0 mm 0.22 in5.6 mm
05:00 PM 56.1°F13.4°C 51.4°F10.8°C 84% 2.2 mph S3.5 kmh S 3.8 mph6.1 kmh 29.36 in994.2 mb 0.12 in3.0 mm 0.00 in0.0 mm 0.23 in5.8 mm
05:05 PM 56.1°F13.4°C 51.4°F10.8°C 84% 2.9 mph S4.7 kmh S 6.0 mph9.7 kmh 29.35 in993.9 mb 0.13 in3.3 mm 0.12 in3.0 mm 0.23 in5.8 mm
05:10 PM 56.1°F13.4°C 51.4°F10.8°C 84% 5.0 mph S8.0 kmh S 6.9 mph11.1 kmh 29.36 in994.2 mb 0.12 in3.0 mm 0.00 in0.0 mm 0.23 in5.8 mm
05:15 PM 56.1°F13.4°C 51.4°F10.8°C 84% 5.2 mph S8.4 kmh S 6.9 mph11.1 kmh 29.36 in994.2 mb 0.12 in3.0 mm 0.00 in0.0 mm 0.23 in5.8 mm
05:20 PM 56.1°F13.4°C 51.4°F10.8°C 84% 2.8 mph S4.5 kmh S 4.5 mph7.2 kmh 29.35 in993.9 mb 0.12 in3.0 mm 0.00 in0.0 mm 0.23 in5.8 mm
05:25 PM 56.1°F13.4°C 51.4°F10.8°C 84% 2.9 mph SW4.7 kmh SW 4.5 mph7.2 kmh 29.35 in993.9 mb 0.11 in2.8 mm 0.00 in0.0 mm 0.23 in5.8 mm
05:30 PM 56.1°F13.4°C 51.4°F10.8°C 84% 2.1 mph WSW3.4 kmh WSW 3.8 mph6.1 kmh 29.36 in994.2 mb 0.08 in2.0 mm 0.00 in0.0 mm 0.23 in5.8 mm
05:35 PM 56.1°F13.4°C 51.4°F10.8°C 84% 1.6 mph W2.6 kmh W 3.1 mph5.0 kmh 29.35 in993.9 mb 0.07 in1.8 mm 0.00 in0.0 mm 0.23 in5.8 mm
05:40 PM 56.1°F13.4°C 51.4°F10.8°C 84% 0.3 mph SSW0.5 kmh SSW 2.2 mph3.5 kmh 29.35 in993.9 mb 0.04 in1.0 mm 0.00 in0.0 mm 0.23 in5.8 mm
05:45 PM 56.1°F13.4°C 51.4°F10.8°C 84% 2.4 mph SW3.9 kmh SW 4.5 mph7.2 kmh 29.35 in993.9 mb 0.03 in0.8 mm 0.00 in0.0 mm 0.23 in5.8 mm
05:50 PM 56.1°F13.4°C 51.4°F10.8°C 84% 3.3 mph SW5.3 kmh SW 4.5 mph7.2 kmh 29.36 in994.2 mb 0.02 in0.5 mm 0.00 in0.0 mm 0.24 in6.1 mm
05:55 PM 56.1°F13.4°C 51.4°F10.8°C 84% 3.3 mph WSW5.3 kmh WSW 4.5 mph7.2 kmh 29.36 in994.2 mb 0.01 in0.3 mm 0.00 in0.0 mm 0.24 in6.1 mm
06:00 PM 56.1°F13.4°C 51.6°F10.9°C 85% 2.0 mph SW3.2 kmh SW 3.8 mph6.1 kmh 29.36 in994.2 mb 0.01 in0.3 mm 0.00 in0.0 mm 0.24 in6.1 mm
06:05 PM 56.1°F13.4°C 51.7°F10.9°C 85% 0.7 mph SW1.1 kmh SW 2.2 mph3.5 kmh 29.36 in994.2 mb 0.01 in0.3 mm 0.00 in0.0 mm 0.24 in6.1 mm
06:10 PM 56.0°F13.3°C 51.6°F10.9°C 85% 1.8 mph W2.9 kmh W 3.8 mph6.1 kmh 29.36 in994.2 mb 0.01 in0.3 mm 0.00 in0.0 mm 0.24 in6.1 mm
06:15 PM 55.9°F13.3°C 51.5°F10.8°C 85% 3.0 mph W4.8 kmh W 4.5 mph7.2 kmh 29.37 in994.6 mb 0.01 in0.3 mm 0.00 in0.0 mm 0.24 in6.1 mm
06:20 PM 55.9°F13.3°C 51.5°F10.8°C 85% 2.5 mph WSW4.0 kmh WSW 3.8 mph6.1 kmh 29.37 in994.6 mb 0.01 in0.3 mm 0.00 in0.0 mm 0.24 in6.1 mm
06:25 PM 55.9°F13.3°C 51.5°F10.8°C 85% 2.0 mph WSW3.2 kmh WSW 3.8 mph6.1 kmh 29.37 in994.6 mb 0.01 in0.3 mm 0.00 in0.0 mm 0.24 in6.1 mm
06:30 PM 55.9°F13.3°C 51.5°F10.8°C 85% 4.1 mph WSW6.6 kmh WSW 5.4 mph8.7 kmh 29.37 in994.6 mb 0.01 in0.3 mm 0.00 in0.0 mm 0.25 in6.4 mm
06:35 PM 55.9°F13.3°C 51.5°F10.8°C 85% 3.5 mph SW5.6 kmh SW 6.0 mph9.7 kmh 29.37 in994.6 mb 0.01 in0.3 mm 0.00 in0.0 mm 0.25 in6.4 mm
06:40 PM 55.9°F13.3°C 51.5°F10.8°C 85% 2.1 mph W3.4 kmh W 3.1 mph5.0 kmh 29.37 in994.6 mb 0.02 in0.5 mm 0.12 in3.0 mm 0.25 in6.4 mm
06:45 PM 55.8°F13.2°C 51.3°F10.7°C 85% 0.7 mph WNW1.1 kmh WNW 1.6 mph2.6 kmh 29.37 in994.6 mb 0.02 in0.5 mm 0.00 in0.0 mm 0.25 in6.4 mm
06:50 PM 55.8°F13.2°C 51.3°F10.7°C 85% 0.3 mph WSW0.5 kmh WSW 1.6 mph2.6 kmh 29.37 in994.6 mb 0.01 in0.3 mm 0.00 in0.0 mm 0.25 in6.4 mm
06:55 PM 55.7°F13.2°C 51.2°F10.7°C 85% 0.2 mph SW0.3 kmh SW 1.6 mph2.6 kmh 29.38 in994.9 mb 0.02 in0.5 mm 0.12 in3.0 mm 0.26 in6.6 mm
07:00 PM 55.6°F13.1°C 51.1°F10.6°C 85% Calm Calm 0.7 mph1.1 kmh 29.38 in994.9 mb 0.02 in0.5 mm 0.00 in0.0 mm 0.26 in6.6 mm
07:05 PM 55.6°F13.1°C 51.1°F10.6°C 85% 0.6 mph WSW1.0 kmh WSW 2.2 mph3.5 kmh 29.38 in994.9 mb 0.02 in0.5 mm 0.00 in0.0 mm 0.26 in6.6 mm
07:10 PM 55.5°F13.1°C 51.1°F10.6°C 85% 0.3 mph SW0.5 kmh SW 1.6 mph2.6 kmh 29.38 in994.9 mb 0.02 in0.5 mm 0.00 in0.0 mm 0.26 in6.6 mm
07:15 PM 55.4°F13.0°C 51.0°F10.6°C 85% Calm Calm 0.7 mph1.1 kmh 29.38 in994.9 mb 0.02 in0.5 mm 0.00 in0.0 mm 0.26 in6.6 mm
07:20 PM 55.4°F13.0°C 51.0°F10.6°C 85% Calm Calm 0.7 mph1.1 kmh 29.38 in994.9 mb 0.02 in0.5 mm 0.00 in0.0 mm 0.26 in6.6 mm
07:25 PM 55.3°F12.9°C 50.9°F10.5°C 85% 0.1 mph NW0.2 kmh NW 1.6 mph2.6 kmh 29.38 in994.9 mb 0.02 in0.5 mm 0.00 in0.0 mm 0.26 in6.6 mm
07:30 PM 55.2°F12.9°C 50.8°F10.4°C 85% 0.2 mph NW0.3 kmh NW 1.6 mph2.6 kmh 29.39 in995.3 mb 0.03 in0.8 mm 0.12 in3.0 mm 0.27 in6.9 mm
07:35 PM 55.2°F12.9°C 50.8°F10.4°C 85% 0.2 mph NW0.3 kmh NW 2.2 mph3.5 kmh 29.39 in995.3 mb 0.04 in1.0 mm 0.12 in3.0 mm 0.29 in7.4 mm
07:40 PM 55.2°F12.9°C 50.8°F10.4°C 85% 2.9 mph NNW4.7 kmh NNW 6.0 mph9.7 kmh 29.40 in995.6 mb 0.04 in1.0 mm 0.00 in0.0 mm 0.29 in7.4 mm
07:45 PM 55.2°F12.9°C 50.8°F10.4°C 85% 1.8 mph N2.9 kmh N 5.4 mph8.7 kmh 29.40 in995.6 mb 0.04 in1.0 mm 0.00 in0.0 mm 0.29 in7.4 mm
07:50 PM 55.1°F12.8°C 50.7°F10.4°C 85% 2.1 mph N3.4 kmh N 4.5 mph7.2 kmh 29.40 in995.6 mb 0.04 in1.0 mm 0.00 in0.0 mm 0.30 in7.6 mm
07:55 PM 55.0°F12.8°C 50.5°F10.3°C 85% 1.1 mph WSW1.8 kmh WSW 3.1 mph5.0 kmh 29.41 in995.9 mb 0.04 in1.0 mm 0.00 in0.0 mm 0.30 in7.6 mm
08:00 PM 54.7°F12.6°C 51.1°F10.6°C 88% 3.0 mph N4.8 kmh N 5.4 mph8.7 kmh 29.41 in995.9 mb 0.04 in1.0 mm 0.00 in0.0 mm 0.30 in7.6 mm
08:05 PM 54.5°F12.5°C 51.3°F10.7°C 89% 2.2 mph 3.5 kmh 3.1 mph5.0 kmh 29.42 in996.3 mb 0.04 in1.0 mm 0.00 in0.0 mm 0.30 in7.6 mm
08:10 PM 54.2°F12.3°C 50.8°F10.4°C 88% 3.2 mph NNE5.1 kmh NNE 6.0 mph9.7 kmh 29.42 in996.3 mb 0.06 in1.5 mm 0.24 in6.1 mm 0.32 in8.1 mm
08:15 PM 53.9°F12.2°C 50.4°F10.2°C 88% 3.3 mph N5.3 kmh N 4.5 mph7.2 kmh 29.43 in996.6 mb 0.06 in1.5 mm 0.00 in0.0 mm 0.32 in8.1 mm
08:20 PM 53.7°F12.1°C 50.2°F10.1°C 88% 2.1 mph N3.4 kmh N 4.5 mph7.2 kmh 29.43 in996.6 mb 0.06 in1.5 mm 0.00 in0.0 mm 0.32 in8.1 mm
08:25 PM 53.5°F11.9°C 49.9°F9.9°C 88% 1.7 mph N2.7 kmh N 3.1 mph5.0 kmh 29.43 in996.6 mb 0.06 in1.5 mm 0.00 in0.0 mm 0.32 in8.1 mm
08:30 PM 53.2°F11.8°C 49.5°F9.7°C 87% 1.7 mph N2.7 kmh N 3.1 mph5.0 kmh 29.43 in996.6 mb 0.05 in1.3 mm 0.00 in0.0 mm 0.32 in8.1 mm
08:35 PM 53.1°F11.7°C 49.4°F9.7°C 87% 0.5 mph NW0.8 kmh NW 1.6 mph2.6 kmh 29.44 in997.0 mb 0.03 in0.8 mm 0.00 in0.0 mm 0.32 in8.1 mm
08:40 PM 53.1°F11.7°C 49.3°F9.6°C 87% 0.9 mph SW1.4 kmh SW 2.2 mph3.5 kmh 29.44 in997.0 mb 0.03 in0.8 mm 0.00 in0.0 mm 0.32 in8.1 mm
08:45 PM 52.9°F11.6°C 49.1°F9.5°C 87% 0.9 mph WSW1.4 kmh WSW 2.2 mph3.5 kmh 29.44 in997.0 mb 0.03 in0.8 mm 0.00 in0.0 mm 0.32 in8.1 mm
08:50 PM 52.8°F11.6°C 49.1°F9.5°C 87% 0.8 mph W1.3 kmh W 2.2 mph3.5 kmh 29.45 in997.3 mb 0.02 in0.5 mm 0.00 in0.0 mm 0.32 in8.1 mm
08:55 PM 52.7°F11.5°C 48.9°F9.4°C 87% 0.3 mph W0.5 kmh W 1.6 mph2.6 kmh 29.45 in997.3 mb 0.02 in0.5 mm 0.00 in0.0 mm 0.32 in8.1 mm
09:00 PM 52.7°F11.5°C 48.9°F9.4°C 87% 0.2 mph SSE0.3 kmh SSE 1.6 mph2.6 kmh 29.45 in997.3 mb 0.02 in0.5 mm 0.00 in0.0 mm 0.32 in8.1 mm
09:05 PM 52.7°F11.5°C 48.9°F9.4°C 87% 0.8 mph S1.3 kmh S 2.2 mph3.5 kmh 29.46 in997.6 mb 0.02 in0.5 mm 0.00 in0.0 mm 0.32 in8.1 mm
09:10 PM 52.6°F11.4°C 48.8°F9.3°C 87% 0.6 mph SW1.0 kmh SW 2.2 mph3.5 kmh 29.46 in997.6 mb 0.00 in0.0 mm 0.00 in0.0 mm 0.32 in8.1 mm
09:15 PM 52.5°F11.4°C 48.8°F9.3°C 87% 1.0 mph SW1.6 kmh SW 2.2 mph3.5 kmh 29.46 in997.6 mb 0.00 in0.0 mm 0.00 in0.0 mm 0.32 in8.1 mm
09:20 PM 52.5°F11.4°C 48.7°F9.3°C 87% 0.2 mph NNE0.3 kmh NNE 1.6 mph2.6 kmh 29.47 in998.0 mb 0.00 in0.0 mm 0.00 in0.0 mm 0.32 in8.1 mm
09:25 PM 52.3°F11.3°C 48.6°F9.2°C 87% 0.2 mph SE0.3 kmh SE 2.2 mph3.5 kmh 29.47 in998.0 mb 0.00 in0.0 mm 0.00 in0.0 mm 0.32 in8.1 mm
09:30 PM 52.2°F11.2°C 48.5°F9.2°C 87% 2.2 mph NE3.5 kmh NE 3.8 mph6.1 kmh 29.47 in998.0 mb 0.00 in0.0 mm 0.00 in0.0 mm 0.32 in8.1 mm
09:35 PM 51.8°F11.0°C 47.8°F8.8°C 86% 3.7 mph 6.0 kmh 4.5 mph7.2 kmh 29.47 in998.0 mb 0.00 in0.0 mm 0.00 in0.0 mm 0.32 in8.1 mm
09:40 PM 51.5°F10.8°C 47.5°F8.6°C 86% 1.3 mph NNW2.1 kmh NNW 3.1 mph5.0 kmh 29.48 in998.3 mb 0.00 in0.0 mm 0.00 in0.0 mm 0.32 in8.1 mm
09:45 PM 51.2°F10.7°C 47.1°F8.4°C 86% 1.5 mph NNW2.4 kmh NNW 3.1 mph5.0 kmh 29.48 in998.3 mb 0.00 in0.0 mm 0.00 in0.0 mm 0.32 in8.1 mm
09:50 PM 51.0°F10.6°C 47.0°F8.3°C 86% 0.8 mph NW1.3 kmh NW 2.2 mph3.5 kmh 29.49 in998.6 mb 0.00 in0.0 mm 0.00 in0.0 mm 0.32 in8.1 mm
09:55 PM 50.8°F10.4°C 46.8°F8.2°C 86% 0.8 mph ENE1.3 kmh ENE 1.6 mph2.6 kmh 29.49 in998.6 mb 0.00 in0.0 mm 0.00 in0.0 mm 0.32 in8.1 mm
10:00 PM 50.6°F10.3°C 46.3°F7.9°C 85% 0.4 mph N0.6 kmh N 1.6 mph2.6 kmh 29.49 in998.6 mb 0.00 in0.0 mm 0.00 in0.0 mm 0.32 in8.1 mm
10:05 PM 50.5°F10.3°C 46.2°F7.9°C 85% Calm Calm 0.7 mph1.1 kmh 29.49 in998.6 mb 0.00 in0.0 mm 0.00 in0.0 mm 0.32 in8.1 mm
10:10 PM 50.5°F10.3°C 46.1°F7.8°C 85% 0.2 mph SW0.3 kmh SW 1.6 mph2.6 kmh 29.49 in998.6 mb 0.00 in0.0 mm 0.00 in0.0 mm 0.32 in8.1 mm
10:15 PM 50.4°F10.2°C 46.0°F7.8°C 85% 1.2 mph NNE1.9 kmh NNE 3.1 mph5.0 kmh 29.50 in999.0 mb 0.00 in0.0 mm 0.00 in0.0 mm 0.32 in8.1 mm
10:20 PM 50.1°F10.1°C 45.8°F7.7°C 85% 3.2 mph N5.1 kmh N 4.5 mph7.2 kmh 29.50 in999.0 mb 0.00 in0.0 mm 0.00 in0.0 mm 0.32 in8.1 mm
10:25 PM 49.8°F9.9°C 45.4°F7.4°C 85% 1.9 mph NNW3.1 kmh NNW 3.8 mph6.1 kmh 29.50 in999.0 mb 0.00 in0.0 mm 0.00 in0.0 mm 0.32 in8.1 mm
10:30 PM 49.5°F9.7°C 45.2°F7.3°C 85% Calm Calm 1.6 mph2.6 kmh 29.51 in999.3 mb 0.00 in0.0 mm 0.00 in0.0 mm 0.32 in8.1 mm
10:35 PM 49.3°F9.6°C 45.0°F7.2°C 85% 1.9 mph NE3.1 kmh NE 3.1 mph5.0 kmh 29.51 in999.3 mb 0.00 in0.0 mm 0.00 in0.0 mm 0.32 in8.1 mm
10:40 PM 49.0°F9.4°C 44.7°F7.1°C 85% 1.6 mph 2.6 kmh 3.1 mph5.0 kmh 29.51 in999.3 mb 0.00 in0.0 mm 0.00 in0.0 mm 0.32 in8.1 mm
10:45 PM 48.7°F9.3°C 44.2°F6.8°C 84% 2.1 mph NE3.4 kmh NE 3.1 mph5.0 kmh 29.51 in999.3 mb 0.00 in0.0 mm 0.00 in0.0 mm 0.32 in8.1 mm
10:50 PM 48.5°F9.2°C 43.9°F6.6°C 84% 1.5 mph NNE2.4 kmh NNE 3.1 mph5.0 kmh 29.51 in999.3 mb 0.00 in0.0 mm 0.00 in0.0 mm 0.32 in8.1 mm
10:55 PM 48.4°F9.1°C 43.7°F6.5°C 84% 2.3 mph 3.7 kmh 3.8 mph6.1 kmh 29.51 in999.3 mb 0.00 in0.0 mm 0.00 in0.0 mm 0.32 in8.1 mm
11:00 PM 48.1°F8.9°C 43.5°F6.4°C 84% 3.4 mph 5.5 kmh 4.5 mph7.2 kmh 29.52 in999.7 mb 0.00 in0.0 mm 0.00 in0.0 mm 0.32 in8.1 mm
11:05 PM 48.0°F8.9°C 43.4°F6.3°C 84% 2.6 mph N4.2 kmh N 3.8 mph6.1 kmh 29.52 in999.7 mb 0.00 in0.0 mm 0.00 in0.0 mm 0.32 in8.1 mm
11:10 PM 47.8°F8.8°C 43.2°F6.2°C 84% 1.1 mph NE1.8 kmh NE 3.1 mph5.0 kmh 29.52 in999.7 mb 0.00 in0.0 mm 0.00 in0.0 mm 0.32 in8.1 mm
11:15 PM 47.6°F8.7°C 43.0°F6.1°C 84% 2.4 mph NE3.9 kmh NE 3.8 mph6.1 kmh 29.52 in999.7 mb 0.00 in0.0 mm 0.00 in0.0 mm 0.32 in8.1 mm
11:20 PM 47.4°F8.6°C 42.8°F6.0°C 84% 1.9 mph NE3.1 kmh NE 3.1 mph5.0 kmh 29.52 in999.7 mb 0.00 in0.0 mm 0.00 in0.0 mm 0.32 in8.1 mm
11:25 PM 47.3°F8.5°C 42.7°F5.9°C 84% 2.1 mph NE3.4 kmh NE 3.1 mph5.0 kmh 29.53 in1000.0 mb 0.00 in0.0 mm 0.00 in0.0 mm 0.32 in8.1 mm
11:30 PM 47.0°F8.3°C 42.5°F5.8°C 84% 2.2 mph NE3.5 kmh NE 3.8 mph6.1 kmh 29.53 in1000.0 mb 0.00 in0.0 mm 0.00 in0.0 mm 0.32 in8.1 mm
11:35 PM 46.7°F8.2°C 42.2°F5.7°C 84% 2.6 mph NNE4.2 kmh NNE 3.8 mph6.1 kmh 29.54 in1000.3 mb 0.00 in0.0 mm 0.00 in0.0 mm 0.32 in8.1 mm
11:40 PM 46.5°F8.1°C 42.0°F5.6°C 84% 1.5 mph N2.4 kmh N 3.8 mph6.1 kmh 29.54 in1000.3 mb 0.00 in0.0 mm 0.00 in0.0 mm 0.32 in8.1 mm
11:45 PM 46.3°F7.9°C 41.8°F5.4°C 84% 2.3 mph NE3.7 kmh NE 3.8 mph6.1 kmh 29.54 in1000.3 mb 0.00 in0.0 mm 0.00 in0.0 mm 0.32 in8.1 mm
11:50 PM 46.1°F7.8°C 41.5°F5.3°C 84% 1.5 mph NE2.4 kmh NE 4.5 mph7.2 kmh 29.55 in1000.7 mb 0.00 in0.0 mm 0.00 in0.0 mm 0.32 in8.1 mm
11:55 PM 45.9°F7.7°C 41.4°F5.2°C 84% 3.9 mph NE6.3 kmh NE 6.9 mph11.1 kmh 29.54 in1000.3 mb 0.00 in0.0 mm 0.00 in0.0 mm 0.32 in8.1 mm